sensor_id;sensor_type;location;lat;lon;timestamp;pressure;altitude;pressure_sealevel;temperature;humidity
10510;BME280;5303;53.266;10.410;2023-03-13T00:01:56;100060.19;;;7.40;100.00
10510;BME280;5303;53.266;10.410;2023-03-13T00:04:22;100052.06;;;7.40;100.00
10510;BME280;5303;53.266;10.410;2023-03-13T00:06:47;100053.25;;;7.37;100.00
10510;BME280;5303;53.266;10.410;2023-03-13T00:09:15;100052.75;;;7.42;100.00
10510;BME280;5303;53.266;10.410;2023-03-13T00:11:42;100050.69;;;7.44;100.00
10510;BME280;5303;53.266;10.410;2023-03-13T00:14:07;100045.81;;;7.39;100.00
10510;BME280;5303;53.266;10.410;2023-03-13T00:16:34;100044.47;;;7.35;100.00
10510;BME280;5303;53.266;10.410;2023-03-13T00:19:02;100047.81;;;7.37;100.00
10510;BME280;5303;53.266;10.410;2023-03-13T00:21:28;100032.41;;;7.38;100.00
10510;BME280;5303;53.266;10.410;2023-03-13T00:23:54;100033.63;;;7.35;100.00
10510;BME280;5303;53.266;10.410;2023-03-13T00:26:25;100031.56;;;7.37;100.00
10510;BME280;5303;53.266;10.410;2023-03-13T00:28:50;100022.44;;;7.30;100.00
10510;BME280;5303;53.266;10.410;2023-03-13T00:31:28;100021.06;;;7.34;100.00
10510;BME280;5303;53.266;10.410;2023-03-13T00:33:57;100016.66;;;7.41;100.00
10510;BME280;5303;53.266;10.410;2023-03-13T00:36:24;100022.06;;;7.41;100.00
10510;BME280;5303;53.266;10.410;2023-03-13T00:38:51;100021.56;;;7.38;100.00
10510;BME280;5303;53.266;10.410;2023-03-13T00:41:22;100014.13;;;7.40;100.00
10510;BME280;5303;53.266;10.410;2023-03-13T00:43:48;100008.72;;;7.40;100.00
10510;BME280;5303;53.266;10.410;2023-03-13T00:46:16;100007.53;;;7.42;100.00
10510;BME280;5303;53.266;10.410;2023-03-13T00:48:42;100006.34;;;7.45;100.00
10510;BME280;5303;53.266;10.410;2023-03-13T00:51:08;100005.47;;;7.53;100.00
10510;BME280;5303;53.266;10.410;2023-03-13T00:53:34;100001.38;;;7.57;100.00
10510;BME280;5303;53.266;10.410;2023-03-13T00:56:02;99994.78;;;7.51;100.00
10510;BME280;5303;53.266;10.410;2023-03-13T00:58:29;99990.88;;;7.62;100.00
10510;BME280;5303;53.266;10.410;2023-03-13T01:00:55;99989.50;;;7.66;100.00
10510;BME280;5303;53.266;10.410;2023-03-13T01:03:22;99974.06;;;7.75;100.00
10510;BME280;5303;53.266;10.410;2023-03-13T01:05:58;99972.00;;;7.77;100.00
10510;BME280;5303;53.266;10.410;2023-03-13T01:08:24;99975.38;;;7.79;100.00
10510;BME280;5303;53.266;10.410;2023-03-13T01:10:49;99978.44;;;7.76;100.00
10510;BME280;5303;53.266;10.410;2023-03-13T01:13:15;99973.56;;;7.71;100.00
10510;BME280;5303;53.266;10.410;2023-03-13T01:15:40;99971.69;;;7.72;100.00
10510;BME280;5303;53.266;10.410;2023-03-13T01:18:05;99959.66;;;7.74;100.00
10510;BME280;5303;53.266;10.410;2023-03-13T01:20:30;99963.09;;;7.60;100.00
10510;BME280;5303;53.266;10.410;2023-03-13T01:22:56;99953.97;;;7.61;100.00
10510;BME280;5303;53.266;10.410;2023-03-13T01:25:21;99950.72;;;7.65;100.00
10510;BME280;5303;53.266;10.410;2023-03-13T01:27:46;99942.03;;;7.70;100.00
10510;BME280;5303;53.266;10.410;2023-03-13T01:30:12;99943.25;;;7.67;100.00
10510;BME280;5303;53.266;10.410;2023-03-13T01:32:37;99930.56;;;7.60;100.00
10510;BME280;5303;53.266;10.410;2023-03-13T01:35:03;99923.47;;;7.59;100.00
10510;BME280;5303;53.266;10.410;2023-03-13T01:37:28;99922.44;;;7.60;100.00
10510;BME280;5303;53.266;10.410;2023-03-13T01:39:53;99916.84;;;7.61;100.00
10510;BME280;5303;53.266;10.410;2023-03-13T01:42:18;99907.50;;;7.64;100.00
10510;BME280;5303;53.266;10.410;2023-03-13T01:44:53;99898.72;;;7.62;100.00
10510;BME280;5303;53.266;10.410;2023-03-13T01:47:18;99892.75;;;7.66;100.00
10510;BME280;5303;53.266;10.410;2023-03-13T01:49:44;99885.34;;;7.60;100.00
10510;BME280;5303;53.266;10.410;2023-03-13T01:52:13;99881.91;;;7.66;100.00
10510;BME280;5303;53.266;10.410;2023-03-13T01:54:46;99863.91;;;7.74;100.00
10510;BME280;5303;53.266;10.410;2023-03-13T01:57:17;99863.91;;;7.74;100.00
10510;BME280;5303;53.266;10.410;2023-03-13T01:59:48;99854.47;;;7.69;100.00
10510;BME280;5303;53.266;10.410;2023-03-13T02:02:14;99862.22;;;7.73;100.00
10510;BME280;5303;53.266;10.410;2023-03-13T02:04:47;99846.53;;;7.68;100.00
10510;BME280;5303;53.266;10.410;2023-03-13T02:07:17;99837.34;;;7.69;100.00
10510;BME280;5303;53.266;10.410;2023-03-13T02:09:47;99832.28;;;7.66;100.00
10510;BME280;5303;53.266;10.410;2023-03-13T02:12:18;99825.69;;;7.68;100.00
10510;BME280;5303;53.266;10.410;2023-03-13T02:14:46;99817.91;;;7.65;100.00
10510;BME280;5303;53.266;10.410;2023-03-13T02:17:13;99816.03;;;7.66;100.00
10510;BME280;5303;53.266;10.410;2023-03-13T02:19:44;99811.41;;;7.75;100.00
10510;BME280;5303;53.266;10.410;2023-03-13T02:24:57;99798.84;;;7.74;100.00
10510;BME280;5303;53.266;10.410;2023-03-13T02:27:27;99796.16;;;7.74;100.00
10510;BME280;5303;53.266;10.410;2023-03-13T02:29:52;99785.69;;;7.70;100.00
10510;BME280;5303;53.266;10.410;2023-03-13T02:32:18;99784.47;;;7.73;100.00
10510;BME280;5303;53.266;10.410;2023-03-13T02:34:46;99779.84;;;7.82;100.00
10510;BME280;5303;53.266;10.410;2023-03-13T02:37:13;99777.00;;;7.75;100.00
10510;BME280;5303;53.266;10.410;2023-03-13T02:39:42;99768.28;;;7.88;100.00
10510;BME280;5303;53.266;10.410;2023-03-13T02:42:10;99772.53;;;7.82;100.00
10510;BME280;5303;53.266;10.410;2023-03-13T02:44:40;99764.16;;;7.92;100.00
10510;BME280;5303;53.266;10.410;2023-03-13T02:47:06;99778.56;;;7.92;100.00
10510;BME280;5303;53.266;10.410;2023-03-13T02:49:33;99763.78;;;7.95;100.00
10510;BME280;5303;53.266;10.410;2023-03-13T02:52:08;99760.91;;;7.97;100.00
10510;BME280;5303;53.266;10.410;2023-03-13T02:54:37;99753.44;;;7.99;100.00
10510;BME280;5303;53.266;10.410;2023-03-13T02:57:04;99748.00;;;7.99;100.00
10510;BME280;5303;53.266;10.410;2023-03-13T02:59:29;99759.69;;;7.99;100.00
10510;BME280;5303;53.266;10.410;2023-03-13T03:01:55;99742.59;;;7.99;100.00
10510;BME280;5303;53.266;10.410;2023-03-13T03:04:21;99744.94;;;8.02;100.00
10510;BME280;5303;53.266;10.410;2023-03-13T03:06:47;99735.47;;;7.98;100.00
10510;BME280;5303;53.266;10.410;2023-03-13T03:09:13;99744.56;;;8.05;100.00
10510;BME280;5303;53.266;10.410;2023-03-13T03:11:39;99738.50;;;8.03;100.00
10510;BME280;5303;53.266;10.410;2023-03-13T03:14:04;99728.97;;;8.07;100.00
10510;BME280;5303;53.266;10.410;2023-03-13T03:16:30;99727.75;;;8.09;100.00
10510;BME280;5303;53.266;10.410;2023-03-13T03:18:55;99719.25;;;8.12;100.00
10510;BME280;5303;53.266;10.410;2023-03-13T03:21:21;99720.94;;;8.13;100.00
10510;BME280;5303;53.266;10.410;2023-03-13T03:23:48;99717.38;;;8.13;100.00
10510;BME280;5303;53.266;10.410;2023-03-13T03:26:13;99707.38;;;8.13;100.00
10510;BME280;5303;53.266;10.410;2023-03-13T03:28:39;99705.97;;;8.03;100.00
10510;BME280;5303;53.266;10.410;2023-03-13T03:31:08;99699.75;;;8.09;100.00
10510;BME280;5303;53.266;10.410;2023-03-13T03:33:34;99695.09;;;8.17;100.00
10510;BME280;5303;53.266;10.410;2023-03-13T03:36:02;99685.09;;;8.18;100.00
10510;BME280;5303;53.266;10.410;2023-03-13T03:38:28;99681.84;;;8.23;100.00
10510;BME280;5303;53.266;10.410;2023-03-13T03:40:53;99674.06;;;8.20;100.00
10510;BME280;5303;53.266;10.410;2023-03-13T03:43:18;99672.88;;;8.22;100.00
10510;BME280;5303;53.266;10.410;2023-03-13T03:45:44;99660.22;;;8.14;100.00
10510;BME280;5303;53.266;10.410;2023-03-13T03:48:09;99648.44;;;8.07;100.00
10510;BME280;5303;53.266;10.410;2023-03-13T03:50:34;99647.59;;;8.07;100.00
10510;BME280;5303;53.266;10.410;2023-03-13T03:52:59;99632.75;;;8.03;100.00
10510;BME280;5303;53.266;10.410;2023-03-13T03:55:25;99627.69;;;8.00;100.00
10510;BME280;5303;53.266;10.410;2023-03-13T03:57:50;99616.63;;;8.01;100.00
10510;BME280;5303;53.266;10.410;2023-03-13T04:00:16;99619.28;;;8.09;100.00
10510;BME280;5303;53.266;10.410;2023-03-13T04:02:43;99609.63;;;8.07;100.00
10510;BME280;5303;53.266;10.410;2023-03-13T04:05:09;99616.94;;;8.06;100.00
10510;BME280;5303;53.266;10.410;2023-03-13T04:07:34;99605.63;;;8.03;100.00
10510;BME280;5303;53.266;10.410;2023-03-13T04:10:00;99598.31;;;8.03;100.00
10510;BME280;5303;53.266;10.410;2023-03-13T04:12:25;99590.72;;;7.99;100.00
10510;BME280;5303;53.266;10.410;2023-03-13T04:14:50;99584.94;;;8.02;100.00
10510;BME280;5303;53.266;10.410;2023-03-13T04:17:15;99584.19;;;8.08;100.00
10510;BME280;5303;53.266;10.410;2023-03-13T04:19:41;99578.75;;;8.23;100.00
10510;BME280;5303;53.266;10.410;2023-03-13T04:22:06;99578.97;;;8.06;100.00
10510;BME280;5303;53.266;10.410;2023-03-13T04:24:32;99566.78;;;8.02;100.00
10510;BME280;5303;53.266;10.410;2023-03-13T04:26:57;99565.41;;;8.06;100.00
10510;BME280;5303;53.266;10.410;2023-03-13T04:29:23;99554.56;;;8.06;100.00
10510;BME280;5303;53.266;10.410;2023-03-13T04:31:48;99549.41;;;7.97;100.00
10510;BME280;5303;53.266;10.410;2023-03-13T04:34:13;99546.13;;;8.01;100.00
10510;BME280;5303;53.266;10.410;2023-03-13T04:36:39;99523.31;;;7.96;100.00
10510;BME280;5303;53.266;10.410;2023-03-13T04:39:04;99530.22;;;7.98;100.00
10510;BME280;5303;53.266;10.410;2023-03-13T04:41:29;99514.81;;;7.99;100.00
10510;BME280;5303;53.266;10.410;2023-03-13T04:43:54;99517.88;;;7.96;100.00
10510;BME280;5303;53.266;10.410;2023-03-13T04:46:20;99521.34;;;7.89;100.00
10510;BME280;5303;53.266;10.410;2023-03-13T04:48:45;99507.13;;;8.02;100.00
10510;BME280;5303;53.266;10.410;2023-03-13T04:51:11;99490.06;;;7.87;100.00
10510;BME280;5303;53.266;10.410;2023-03-13T04:53:36;99486.38;;;7.94;100.00
10510;BME280;5303;53.266;10.410;2023-03-13T04:56:01;99482.47;;;7.97;100.00
10510;BME280;5303;53.266;10.410;2023-03-13T04:58:27;99475.63;;;7.86;100.00
10510;BME280;5303;53.266;10.410;2023-03-13T05:00:52;99474.13;;;7.99;100.00
10510;BME280;5303;53.266;10.410;2023-03-13T05:03:18;99459.56;;;8.00;100.00
10510;BME280;5303;53.266;10.410;2023-03-13T05:05:43;99450.84;;;8.04;100.00
10510;BME280;5303;53.266;10.410;2023-03-13T05:08:08;99438.88;;;7.99;100.00
10510;BME280;5303;53.266;10.410;2023-03-13T05:10:35;99431.41;;;8.01;100.00
10510;BME280;5303;53.266;10.410;2023-03-13T05:13:00;99441.59;;;7.99;100.00
10510;BME280;5303;53.266;10.410;2023-03-13T05:15:25;99437.09;;;8.06;100.00
10510;BME280;5303;53.266;10.410;2023-03-13T05:17:52;99417.63;;;8.02;100.00
10510;BME280;5303;53.266;10.410;2023-03-13T05:20:17;99423.06;;;8.02;100.00
10510;BME280;5303;53.266;10.410;2023-03-13T05:22:42;99412.50;;;8.07;100.00
10510;BME280;5303;53.266;10.410;2023-03-13T05:25:08;99400.91;;;7.99;100.00
10510;BME280;5303;53.266;10.410;2023-03-13T05:27:33;99394.28;;;8.01;100.00
10510;BME280;5303;53.266;10.410;2023-03-13T05:29:59;99384.72;;;8.05;100.00
10510;BME280;5303;53.266;10.410;2023-03-13T05:32:24;99375.69;;;7.98;100.00
10510;BME280;5303;53.266;10.410;2023-03-13T05:34:50;99367.16;;;8.01;100.00
10510;BME280;5303;53.266;10.410;2023-03-13T05:37:15;99374.75;;;8.06;100.00
10510;BME280;5303;53.266;10.410;2023-03-13T05:39:40;99370.91;;;8.00;100.00
10510;BME280;5303;53.266;10.410;2023-03-13T05:42:05;99367.16;;;8.01;100.00
10510;BME280;5303;53.266;10.410;2023-03-13T05:44:31;99373.25;;;8.03;100.00
10510;BME280;5303;53.266;10.410;2023-03-13T05:46:56;99363.34;;;7.96;100.00
10510;BME280;5303;53.266;10.410;2023-03-13T05:49:21;99379.56;;;8.10;100.00
10510;BME280;5303;53.266;10.410;2023-03-13T05:51:46;99370.91;;;8.22;100.00
10510;BME280;5303;53.266;10.410;2023-03-13T05:54:12;99364.78;;;8.13;100.00
10510;BME280;5303;53.266;10.410;2023-03-13T05:56:37;99356.91;;;8.18;100.00
10510;BME280;5303;53.266;10.410;2023-03-13T05:59:02;99357.28;;;8.15;100.00
10510;BME280;5303;53.266;10.410;2023-03-13T06:01:28;99351.91;;;8.22;100.00
10510;BME280;5303;53.266;10.410;2023-03-13T06:03:53;99348.69;;;8.33;100.00
10510;BME280;5303;53.266;10.410;2023-03-13T06:06:19;99352.41;;;8.25;100.00
10510;BME280;5303;53.266;10.410;2023-03-13T06:08:44;99329.84;;;8.25;100.00
10510;BME280;5303;53.266;10.410;2023-03-13T06:11:09;99334.88;;;8.28;100.00
10510;BME280;5303;53.266;10.410;2023-03-13T06:13:35;99319.63;;;8.27;100.00
10510;BME280;5303;53.266;10.410;2023-03-13T06:16:00;99313.00;;;8.29;100.00
10510;BME280;5303;53.266;10.410;2023-03-13T06:18:25;99320.53;;;8.34;100.00
10510;BME280;5303;53.266;10.410;2023-03-13T06:20:56;99313.97;;;8.43;100.00
10510;BME280;5303;53.266;10.410;2023-03-13T06:23:22;99298.72;;;8.42;100.00
10510;BME280;5303;53.266;10.410;2023-03-13T06:25:47;99306.03;;;8.42;100.00
10510;BME280;5303;53.266;10.410;2023-03-13T06:28:13;99293.75;;;8.46;100.00
10510;BME280;5303;53.266;10.410;2023-03-13T06:30:39;99298.56;;;8.50;100.00
10510;BME280;5303;53.266;10.410;2023-03-13T06:33:04;99298.06;;;8.40;100.00
10510;BME280;5303;53.266;10.410;2023-03-13T06:35:30;99277.91;;;8.49;100.00
10510;BME280;5303;53.266;10.410;2023-03-13T06:37:55;99271.03;;;8.53;100.00
10510;BME280;5303;53.266;10.410;2023-03-13T06:40:20;99269.75;;;8.49;100.00
10510;BME280;5303;53.266;10.410;2023-03-13T06:42:45;99272.91;;;8.53;100.00
10510;BME280;5303;53.266;10.410;2023-03-13T06:45:11;99284.66;;;8.60;100.00
10510;BME280;5303;53.266;10.410;2023-03-13T06:47:36;99277.16;;;8.62;100.00
10510;BME280;5303;53.266;10.410;2023-03-13T06:50:01;99275.75;;;8.73;100.00
10510;BME280;5303;53.266;10.410;2023-03-13T06:52:27;99260.31;;;8.73;100.00
10510;BME280;5303;53.266;10.410;2023-03-13T06:54:52;99248.88;;;8.84;100.00
10510;BME280;5303;53.266;10.410;2023-03-13T06:57:17;99245.34;;;8.84;100.00
10510;BME280;5303;53.266;10.410;2023-03-13T06:59:43;99238.50;;;8.95;100.00
10510;BME280;5303;53.266;10.410;2023-03-13T07:02:11;99245.16;;;8.92;100.00
10510;BME280;5303;53.266;10.410;2023-03-13T07:04:37;99245.19;;;8.99;100.00
10510;BME280;5303;53.266;10.410;2023-03-13T07:07:02;99221.41;;;9.01;100.00
10510;BME280;5303;53.266;10.410;2023-03-13T07:09:27;99216.78;;;9.01;100.00
10510;BME280;5303;53.266;10.410;2023-03-13T07:11:53;99226.84;;;9.07;100.00
10510;BME280;5303;53.266;10.410;2023-03-13T07:14:18;99215.56;;;9.04;100.00
10510;BME280;5303;53.266;10.410;2023-03-13T07:16:44;99212.69;;;9.12;100.00
10510;BME280;5303;53.266;10.410;2023-03-13T07:19:10;99203.47;;;9.13;100.00
10510;BME280;5303;53.266;10.410;2023-03-13T07:21:35;99203.06;;;9.16;100.00
10510;BME280;5303;53.266;10.410;2023-03-13T07:24:01;99212.03;;;9.10;100.00
10510;BME280;5303;53.266;10.410;2023-03-13T07:26:26;99197.25;;;9.26;100.00
10510;BME280;5303;53.266;10.410;2023-03-13T07:28:51;99202.69;;;9.26;100.00
10510;BME280;5303;53.266;10.410;2023-03-13T07:31:19;99200.81;;;9.33;100.00
10510;BME280;5303;53.266;10.410;2023-03-13T07:33:44;99197.91;;;9.35;100.00
10510;BME280;5303;53.266;10.410;2023-03-13T07:36:11;99184.09;;;9.29;100.00
10510;BME280;5303;53.266;10.410;2023-03-13T07:38:37;99193.72;;;9.32;100.00
10510;BME280;5303;53.266;10.410;2023-03-13T07:41:03;99174.69;;;9.32;100.00
10510;BME280;5303;53.266;10.410;2023-03-13T07:43:28;99184.94;;;9.37;100.00
10510;BME280;5303;53.266;10.410;2023-03-13T07:45:59;99176.41;;;9.53;100.00
10510;BME280;5303;53.266;10.410;2023-03-13T07:48:28;99168.25;;;9.53;100.00
10510;BME280;5303;53.266;10.410;2023-03-13T07:50:55;99161.78;;;9.47;100.00
10510;BME280;5303;53.266;10.410;2023-03-13T07:53:21;99164.09;;;9.57;100.00
10510;BME280;5303;53.266;10.410;2023-03-13T07:56:00;99168.28;;;9.66;100.00
10510;BME280;5303;53.266;10.410;2023-03-13T07:58:28;99163.88;;;9.59;100.00
10510;BME280;5303;53.266;10.410;2023-03-13T08:00:54;99158.44;;;9.59;100.00
10510;BME280;5303;53.266;10.410;2023-03-13T08:03:20;99154.88;;;9.65;100.00
10510;BME280;5303;53.266;10.410;2023-03-13T08:05:45;99143.81;;;9.66;100.00
10510;BME280;5303;53.266;10.410;2023-03-13T08:08:11;99154.47;;;9.68;100.00
10510;BME280;5303;53.266;10.410;2023-03-13T08:10:36;99150.50;;;9.57;100.00
10510;BME280;5303;53.266;10.410;2023-03-13T08:13:01;99153.41;;;9.62;100.00
10510;BME280;5303;53.266;10.410;2023-03-13T08:15:27;99145.47;;;9.67;100.00
10510;BME280;5303;53.266;10.410;2023-03-13T08:17:53;99157.59;;;9.85;100.00
10510;BME280;5303;53.266;10.410;2023-03-13T08:20:18;99154.69;;;9.86;100.00
10510;BME280;5303;53.266;10.410;2023-03-13T08:22:44;99148.81;;;9.96;100.00
10510;BME280;5303;53.266;10.410;2023-03-13T08:25:14;99136.25;;;9.88;100.00
10510;BME280;5303;53.266;10.410;2023-03-13T08:27:40;99132.28;;;9.97;100.00
10510;BME280;5303;53.266;10.410;2023-03-13T08:30:06;99133.75;;;10.07;100.00
10510;BME280;5303;53.266;10.410;2023-03-13T08:32:32;99132.47;;;10.16;100.00
10510;BME280;5303;53.266;10.410;2023-03-13T08:34:58;99137.69;;;10.17;100.00
10510;BME280;5303;53.266;10.410;2023-03-13T08:37:23;99128.28;;;10.20;100.00
10510;BME280;5303;53.266;10.410;2023-03-13T08:39:48;99134.34;;;10.35;100.00
10510;BME280;5303;53.266;10.410;2023-03-13T08:42:14;99133.09;;;10.31;100.00
10510;BME280;5303;53.266;10.410;2023-03-13T08:44:39;99137.25;;;10.47;100.00
10510;BME280;5303;53.266;10.410;2023-03-13T08:47:06;99127.78;;;10.49;100.00
10510;BME280;5303;53.266;10.410;2023-03-13T08:49:31;99127.94;;;10.68;100.00
10510;BME280;5303;53.266;10.410;2023-03-13T08:51:56;99117.88;;;10.68;100.00
10510;BME280;5303;53.266;10.410;2023-03-13T08:54:22;99124.34;;;10.81;100.00
10510;BME280;5303;53.266;10.410;2023-03-13T08:56:47;99115.31;;;10.87;100.00
10510;BME280;5303;53.266;10.410;2023-03-13T08:59:12;99120.50;;;10.95;100.00
10510;BME280;5303;53.266;10.410;2023-03-13T09:01:40;99115.81;;;11.09;100.00
10510;BME280;5303;53.266;10.410;2023-03-13T09:04:06;99104.66;;;11.17;100.00
10510;BME280;5303;53.266;10.410;2023-03-13T09:06:33;99100.84;;;11.25;100.00
10510;BME280;5303;53.266;10.410;2023-03-13T09:08:59;99109.13;;;11.43;100.00
10510;BME280;5303;53.266;10.410;2023-03-13T09:11:24;99100.25;;;11.48;100.00
10510;BME280;5303;53.266;10.410;2023-03-13T09:13:50;99104.38;;;11.57;100.00
10510;BME280;5303;53.266;10.410;2023-03-13T09:16:23;99093.84;;;11.60;100.00
10510;BME280;5303;53.266;10.410;2023-03-13T09:18:50;99099.00;;;11.75;100.00
10510;BME280;5303;53.266;10.410;2023-03-13T09:21:17;99087.41;;;11.80;100.00
10510;BME280;5303;53.266;10.410;2023-03-13T09:23:43;99096.41;;;11.80;100.00
10510;BME280;5303;53.266;10.410;2023-03-13T09:26:08;99081.91;;;11.86;100.00
10510;BME280;5303;53.266;10.410;2023-03-13T09:28:35;99075.88;;;12.03;100.00
10510;BME280;5303;53.266;10.410;2023-03-13T09:31:23;99080.06;;;12.05;100.00
10510;BME280;5303;53.266;10.410;2023-03-13T09:33:49;99081.44;;;12.15;100.00
10510;BME280;5303;53.266;10.410;2023-03-13T09:36:16;99079.09;;;12.18;100.00
10510;BME280;5303;53.266;10.410;2023-03-13T09:38:42;99075.06;;;12.21;100.00
10510;BME280;5303;53.266;10.410;2023-03-13T09:47:03;99076.50;;;12.23;100.00
10510;BME280;5303;53.266;10.410;2023-03-13T09:49:39;99081.03;;;12.29;100.00
10510;BME280;5303;53.266;10.410;2023-03-13T09:52:16;99085.09;;;12.27;100.00
10510;BME280;5303;53.266;10.410;2023-03-13T09:54:53;99070.75;;;12.31;100.00
10510;BME280;5303;53.266;10.410;2023-03-13T09:57:34;99076.88;;;12.45;100.00
10510;BME280;5303;53.266;10.410;2023-03-13T10:00:04;99072.47;;;12.44;100.00
10510;BME280;5303;53.266;10.410;2023-03-13T10:02:36;99084.41;;;12.50;100.00
10510;BME280;5303;53.266;10.410;2023-03-13T10:05:13;99086.44;;;12.54;100.00
10510;BME280;5303;53.266;10.410;2023-03-13T10:07:40;99069.75;;;12.63;100.00
10510;BME280;5303;53.266;10.410;2023-03-13T10:10:14;99085.81;;;12.71;100.00
10510;BME280;5303;53.266;10.410;2023-03-13T10:12:47;99083.44;;;12.74;100.00
10510;BME280;5303;53.266;10.410;2023-03-13T10:15:36;99094.03;;;13.01;100.00
10510;BME280;5303;53.266;10.410;2023-03-13T10:18:14;99089.06;;;13.10;100.00
10510;BME280;5303;53.266;10.410;2023-03-13T10:20:42;99098.97;;;13.22;100.00
10510;BME280;5303;53.266;10.410;2023-03-13T10:25:44;99104.78;;;13.44;100.00
10510;BME280;5303;53.266;10.410;2023-03-13T10:28:12;99094.78;;;13.38;100.00
10510;BME280;5303;53.266;10.410;2023-03-13T10:30:43;99096.94;;;13.36;100.00
10510;BME280;5303;53.266;10.410;2023-03-13T10:35:38;99089.91;;;13.40;100.00
10510;BME280;5303;53.266;10.410;2023-03-13T10:38:10;99103.25;;;13.48;100.00
10510;BME280;5303;53.266;10.410;2023-03-13T10:40:36;99103.63;;;13.64;100.00
10510;BME280;5303;53.266;10.410;2023-03-13T10:43:14;99096.97;;;13.60;100.00
10510;BME280;5303;53.266;10.410;2023-03-13T10:45:41;99090.53;;;13.54;100.00
10510;BME280;5303;53.266;10.410;2023-03-13T10:48:12;99088.53;;;13.73;100.00
10510;BME280;5303;53.266;10.410;2023-03-13T10:50:42;99093.06;;;13.79;100.00
10510;BME280;5303;53.266;10.410;2023-03-13T10:55:54;99081.75;;;13.99;100.00
10510;BME280;5303;53.266;10.410;2023-03-13T10:58:26;99073.94;;;13.91;100.00
10510;BME280;5303;53.266;10.410;2023-03-13T11:01:09;99071.91;;;14.10;100.00
10510;BME280;5303;53.266;10.410;2023-03-13T11:03:38;99070.09;;;14.15;100.00
10510;BME280;5303;53.266;10.410;2023-03-13T11:06:03;99074.13;;;14.25;100.00
10510;BME280;5303;53.266;10.410;2023-03-13T11:08:35;99062.69;;;14.28;100.00
10510;BME280;5303;53.266;10.410;2023-03-13T11:11:04;99074.25;;;14.41;100.00
10510;BME280;5303;53.266;10.410;2023-03-13T11:13:39;99058.25;;;14.50;100.00
10510;BME280;5303;53.266;10.410;2023-03-13T11:16:20;99061.97;;;14.56;100.00
10510;BME280;5303;53.266;10.410;2023-03-13T11:19:11;99064.19;;;14.71;100.00
10510;BME280;5303;53.266;10.410;2023-03-13T11:24:48;99057.53;;;14.95;100.00
10510;BME280;5303;53.266;10.410;2023-03-13T11:32:59;99037.81;;;15.27;100.00
10510;BME280;5303;53.266;10.410;2023-03-13T11:35:39;99025.53;;;15.46;100.00
10510;BME280;5303;53.266;10.410;2023-03-13T11:38:17;99026.69;;;15.33;100.00
10510;BME280;5303;53.266;10.410;2023-03-13T11:41:08;99019.72;;;15.43;100.00
10510;BME280;5303;53.266;10.410;2023-03-13T11:46:39;99016.03;;;15.37;100.00
10510;BME280;5303;53.266;10.410;2023-03-13T11:49:14;99025.75;;;15.11;100.00
10510;BME280;5303;53.266;10.410;2023-03-13T11:54:45;99014.88;;;15.33;100.00
10510;BME280;5303;53.266;10.410;2023-03-13T11:57:24;99019.59;;;15.37;100.00
10510;BME280;5303;53.266;10.410;2023-03-13T12:00:24;99023.72;;;15.52;100.00
10510;BME280;5303;53.266;10.410;2023-03-13T12:05:50;99006.53;;;15.73;100.00
10510;BME280;5303;53.266;10.410;2023-03-13T12:11:11;98993.28;;;15.70;100.00
10510;BME280;5303;53.266;10.410;2023-03-13T12:13:55;99011.41;;;15.71;100.00
10510;BME280;5303;53.266;10.410;2023-03-13T12:16:36;98988.50;;;15.99;100.00
10510;BME280;5303;53.266;10.410;2023-03-13T12:19:03;98995.63;;;16.00;100.00
10510;BME280;5303;53.266;10.410;2023-03-13T12:21:31;98977.88;;;16.08;100.00
10510;BME280;5303;53.266;10.410;2023-03-13T12:26:52;98964.09;;;16.03;100.00
10510;BME280;5303;53.266;10.410;2023-03-13T12:29:32;98955.78;;;15.98;100.00
10510;BME280;5303;53.266;10.410;2023-03-13T12:32:12;98949.78;;;16.01;100.00
10510;BME280;5303;53.266;10.410;2023-03-13T12:34:59;98945.78;;;16.09;100.00
10510;BME280;5303;53.266;10.410;2023-03-13T12:37:33;98951.19;;;16.25;100.00
10510;BME280;5303;53.266;10.410;2023-03-13T12:40:16;98939.53;;;16.40;100.00
10510;BME280;5303;53.266;10.410;2023-03-13T12:45:19;98923.53;;;16.32;100.00
10510;BME280;5303;53.266;10.410;2023-03-13T12:53:23;98939.59;;;16.45;100.00
10510;BME280;5303;53.266;10.410;2023-03-13T12:56:08;98914.56;;;16.69;100.00
10510;BME280;5303;53.266;10.410;2023-03-13T12:58:50;98902.94;;;16.62;100.00
10510;BME280;5303;53.266;10.410;2023-03-13T13:01:39;98895.41;;;16.47;100.00
10510;BME280;5303;53.266;10.410;2023-03-13T13:04:10;98895.69;;;16.50;100.00
10510;BME280;5303;53.266;10.410;2023-03-13T13:07:16;98889.50;;;16.65;100.00
10510;BME280;5303;53.266;10.410;2023-03-13T13:10:02;98883.75;;;16.67;100.00
10510;BME280;5303;53.266;10.410;2023-03-13T13:12:28;98891.19;;;16.66;100.00
10510;BME280;5303;53.266;10.410;2023-03-13T13:14:57;98882.31;;;16.86;100.00
10510;BME280;5303;53.266;10.410;2023-03-13T13:22:55;98876.28;;;17.21;100.00
10510;BME280;5303;53.266;10.410;2023-03-13T13:25:33;98878.25;;;17.31;100.00
10510;BME280;5303;53.266;10.410;2023-03-13T13:30:39;98875.22;;;17.28;100.00
10510;BME280;5303;53.266;10.410;2023-03-13T13:38:32;98867.03;;;17.43;100.00
10510;BME280;5303;53.266;10.410;2023-03-13T13:48:38;98858.06;;;17.58;100.00
10510;BME280;5303;53.266;10.410;2023-03-13T13:56:29;98846.75;;;17.54;100.00
10510;BME280;5303;53.266;10.410;2023-03-13T13:58:59;98850.31;;;17.55;100.00
10510;BME280;5303;53.266;10.410;2023-03-13T14:01:27;98845.09;;;17.53;100.00
10510;BME280;5303;53.266;10.410;2023-03-13T14:03:58;98827.66;;;17.37;100.00
10510;BME280;5303;53.266;10.410;2023-03-13T14:06:29;98837.28;;;17.35;100.00
10510;BME280;5303;53.266;10.410;2023-03-13T14:09:10;98835.25;;;17.20;100.00
10510;BME280;5303;53.266;10.410;2023-03-13T14:11:38;98836.69;;;17.28;100.00
10510;BME280;5303;53.266;10.410;2023-03-13T14:14:14;98832.31;;;17.32;100.00
10510;BME280;5303;53.266;10.410;2023-03-13T14:16:45;98830.91;;;17.29;100.00